^^

..:: Storico WU ::..




Lo storico viene creato da WUnderground con i dati che la stazione Meteomincio invia al loro server. L' aggiornamento viene fatto ogni 5 minuti circa, tuttavia possono esserci intervalli pi¨ ampi a causa di errori, interruzioni di servizio o problemi nell' invio tramite FTP.


Storico stazione MeteoMincio
Giorno Sommario per Marzo 14, 2022 Unità:  Inglese    Metrico   Entrambi
Giorno Settimana Mese Anno
  Max: Min: Media:
Temperatura: 53.2 °F 42.3 °F 47.1 °F
Dew Point: 39.2 °F 34.7 °F 36.7 °F
Umidità: 77% 53% 67%
Velocità vento: 6.1mph 0mph 2.3mph
Raffica: 10.4mph - -
Direzione- - South
Pressione: 30.6 in 30.4 in -
Precipitazioni: 0 in    
 
 
Tabulato Dati per Marzo 14, 2022
Ora Temperatura Dew Point Pressione Direzione Velocità vento Raffica Umidità Intensità pioggia (oraria) Info solare Situazione
00:04 43.2 °F 35.1 °F 30.4 in ENE 3.1 mph 5 mph 73% 0 in 0 W/m2
00:09 43 °F 34.9 °F 30.4 in ENE 3.2 mph 6.9 mph 73% 0 in 0 W/m2
00:14 43 °F 34.9 °F 30.4 in ENE 3.4 mph 7 mph 73% 0 in 0 W/m2
00:19 43 °F 34.9 °F 30.4 in ENE 3.5 mph 5 mph 73% 0 in 0 W/m2
00:24 43 °F 34.9 °F 30.4 in ENE 3 mph 5 mph 73% 0 in 0 W/m2
00:29 43 °F 34.9 °F 30.4 in ENE 3.2 mph 5 mph 73% 0 in 0 W/m2
00:34 43 °F 34.9 °F 30.4 in ENE 2.7 mph 5 mph 73% 0 in 0 W/m2
00:39 43 °F 34.9 °F 30.4 in NE 2.5 mph 5 mph 73% 0 in 0 W/m2
00:44 43 °F 34.9 °F 30.4 in NE 3.1 mph 5 mph 73% 0 in 0 W/m2
00:49 43 °F 34.9 °F 30.4 in ENE 3.1 mph 5 mph 73% 0 in 0 W/m2
00:54 42.8 °F 34.7 °F 30.4 in ENE 1.9 mph 5 mph 73% 0 in 0 W/m2
00:59 43 °F 34.9 °F 30.4 in NE 1.6 mph 3.5 mph 73% 0 in 0 W/m2
01:04 43 °F 34.9 °F 30.4 in ENE 3 mph 5 mph 73% 0 in 0 W/m2
01:09 43.2 °F 34.9 °F 30.4 in ENE 3.3 mph 5 mph 72.8% 0 in 0 W/m2
01:14 43 °F 34.9 °F 30.4 in ENE 2.5 mph 5 mph 73% 0 in 0 W/m2
01:19 43 °F 34.9 °F 30.4 in ENE 3.2 mph 5 mph 73% 0 in 0 W/m2
01:24 43 °F 34.9 °F 30.4 in ENE 2.2 mph 5 mph 73% 0 in 0 W/m2
01:29 43 °F 34.9 °F 30.4 in ENE 1.8 mph 4 mph 73% 0 in 0 W/m2
01:34 43 °F 34.9 °F 30.4 in ENE 2.5 mph 5 mph 73% 0 in 0 W/m2
01:39 43 °F 34.9 °F 30.4 in ENE 2.8 mph 5 mph 73% 0 in 0 W/m2
01:44 43 °F 34.9 °F 30.4 in ENE 2.5 mph 5 mph 73% 0 in 0 W/m2
01:49 43 °F 34.9 °F 30.4 in ENE 2.6 mph 4 mph 73% 0 in 0 W/m2
01:54 43 °F 34.9 °F 30.4 in ENE 2.4 mph 4 mph 73% 0 in 0 W/m2
01:59 43 °F 34.9 °F 30.4 in ENE 2.8 mph 4 mph 73% 0 in 0 W/m2
02:04 43 °F 34.9 °F 30.4 in ENE 3.2 mph 5 mph 73% 0 in 0 W/m2
02:09 42.8 °F 34.7 °F 30.4 in ENE 2.9 mph 5 mph 73% 0 in 0 W/m2
02:14 42.8 °F 34.7 °F 30.4 in ENE 2.2 mph 5 mph 73.2% 0 in 0 W/m2
02:19 42.8 °F 34.7 °F 30.4 in ENE 1.6 mph 5 mph 73% 0 in 0 W/m2
02:24 42.8 °F 34.7 °F 30.4 in ENE 2 mph 4 mph 73% 0 in 0 W/m2
02:29 42.8 °F 34.7 °F 30.4 in ENE 2.1 mph 4 mph 73.1% 0 in 0 W/m2
02:34 42.8 °F 34.9 °F 30.4 in ENE 2 mph 3.5 mph 73.4% 0 in 0 W/m2
02:39 42.8 °F 34.9 °F 30.4 in ENE 0.5 mph 3 mph 73.5% 0 in 0 W/m2
02:44 42.8 °F 34.9 °F 30.4 in ENE 1.3 mph 3.5 mph 73.4% 0 in 0 W/m2
02:49 42.8 °F 34.9 °F 30.4 in ENE 1.8 mph 3 mph 73.2% 0 in 0 W/m2
02:54 43 °F 34.9 °F 30.4 in ENE 1.5 mph 2.3 mph 73% 0 in 0 W/m2
02:59 43 °F 34.9 °F 30.4 in ENE 1.4 mph 3.5 mph 73% 0 in 0 W/m2
03:04 42.8 °F 34.7 °F 30.4 in ENE 0.4 mph 3 mph 73% 0 in 0 W/m2
03:09 43 °F 35.1 °F 30.4 in ENE 0.3 mph 2.3 mph 73.7% 0 in 0 W/m2
03:14 43 °F 35.1 °F 30.4 in NNE 1.3 mph 3.5 mph 73.6% 0 in 0 W/m2
03:19 43 °F 35.2 °F 30.4 in North 1.8 mph 3.5 mph 73.9% 0 in 0 W/m2
03:24 43 °F 35.2 °F 30.4 in North 1.7 mph 3 mph 74% 0 in 0 W/m2
03:29 43 °F 35.1 °F 30.4 in North 1.2 mph 2.3 mph 73.2% 0 in 0 W/m2
03:34 43.2 °F 35.1 °F 30.4 in NNE 1.4 mph 2.3 mph 73% 0 in 0 W/m2
03:39 43.3 °F 35.1 °F 30.4 in NNE 1.9 mph 3.5 mph 72.7% 0 in 0 W/m2
03:44 43.3 °F 35.1 °F 30.4 in NE 1.6 mph 3.5 mph 72% 0 in 0 W/m2
03:49 43.3 °F 35.1 °F 30.4 in NNE 1.2 mph 3.5 mph 72% 0 in 0 W/m2
03:54 43.5 °F 35.1 °F 30.4 in NNE 0.7 mph 3 mph 72% 0 in 0 W/m2
03:59 43.5 °F 35.1 °F 30.4 in NE 0.6 mph 2.3 mph 72% 0 in 0 W/m2
04:04 43.3 °F 35.1 °F 30.4 in NNE 1 mph 2.3 mph 72% 0 in 0 W/m2
04:09 43.3 °F 35.1 °F 30.4 in North 1.1 mph 2.3 mph 72% 0 in 0 W/m2
04:14 43.3 °F 35.1 °F 30.4 in North 1.7 mph 3.5 mph 72.7% 0 in 0 W/m2
04:19 43.3 °F 34.9 °F 30.4 in North 1.5 mph 3 mph 72% 0 in 0 W/m2
04:24 43.3 °F 34.9 °F 30.4 in NNE 0.6 mph 2.3 mph 72% 0 in 0 W/m2
04:29 43.3 °F 34.9 °F 30.4 in NNE 0.6 mph 2.3 mph 72% 0 in 0 W/m2
04:34 43.3 °F 35.1 °F 30.4 in NNE 1.1 mph 2.3 mph 72.3% 0 in 0 W/m2
04:39 43.3 °F 35.2 °F 30.4 in NNE 1.6 mph 3.5 mph 73% 0 in 0 W/m2
04:44 43.3 °F 35.1 °F 30.4 in NNE 1.2 mph 3.5 mph 72.4% 0 in 0 W/m2
04:49 43.3 °F 34.9 °F 30.4 in NNE 0.7 mph 3 mph 72.1% 0 in 0 W/m2
04:54 43.2 °F 35.1 °F 30.4 in NNE 0.4 mph 2 mph 72.9% 0 in 0 W/m2
04:59 43.2 °F 35.1 °F 30.4 in Calm   1.2 mph 73% 0 in 0 W/m2
05:04 42.8 °F 35.1 °F 30.4 in Calm   1 mph 73.9% 0 in 0 W/m2
05:09 42.6 °F 35.1 °F 30.4 in Calm     74.7% 0 in 0 W/m2
05:14 42.4 °F 35.2 °F 30.4 in Calm     75.2% 0 in 0 W/m2
05:19 42.4 °F 35.2 °F 30.4 in Calm     75.2% 0 in 0 W/m2
05:24 42.4 °F 35.4 °F 30.4 in Calm     75.8% 0 in 0 W/m2
05:29 42.4 °F 35.4 °F 30.4 in Calm     76% 0 in 0 W/m2
05:34 42.4 °F 35.4 °F 30.5 in Calm     76% 0 in 0 W/m2
05:39 42.6 °F 35.6 °F 30.5 in Calm     76% 0 in 0 W/m2
05:44 42.6 °F 35.6 °F 30.5 in Calm     76% 0 in 0 W/m2
05:49 42.6 °F 35.6 °F 30.5 in Calm     76% 0 in 0 W/m2
05:54 42.8 °F 35.8 °F 30.5 in Calm     76% 0 in 0 W/m2
05:59 42.6 °F 35.6 °F 30.5 in Calm     76% 0 in 0 W/m2
06:04 42.6 °F 35.6 °F 30.5 in Calm     76% 0 in 0 W/m2
06:09 42.6 °F 35.6 °F 30.5 in Calm     76% 0 in 0 W/m2
06:14 42.6 °F 35.6 °F 30.5 in Calm     76.1% 0 in 0 W/m2
06:19 42.6 °F 35.8 °F 30.5 in Calm     76.7% 0 in 0 W/m2
06:24 42.4 °F 35.6 °F 30.5 in Calm     76.4% 0 in 0 W/m2
06:29 42.3 °F 35.6 °F 30.5 in West 0.9 mph 2.3 mph 76.9% 0 in 0 W/m2
06:34 42.3 °F 35.2 °F 30.5 in West 0.2 mph 2 mph 76% 0 in 0 W/m2
06:39 42.3 °F 35.2 °F 30.5 in West 0.3 mph 1.2 mph 76% 0 in 0 W/m2
06:44 42.3 °F 35.2 °F 30.5 in West 0.1 mph 1.2 mph 76% 0 in 5 W/m2
06:49 42.4 °F 35.4 °F 30.5 in Calm   1.2 mph 76% 0 in 9 W/m2
06:54 42.6 °F 35.6 °F 30.5 in West 0.2 mph 1.2 mph 76% 0 in 9 W/m2
06:59 42.6 °F 35.6 °F 30.5 in West 0.7 mph 1.2 mph 76% 0 in 12 W/m2
07:04 42.4 °F 35.4 °F 30.5 in West 1.1 mph 2.3 mph 76% 0 in 14 W/m2
07:09 42.6 °F 35.6 °F 30.5 in West 1.4 mph 2.3 mph 76% 0 in 23 W/m2
07:14 42.6 °F 35.6 °F 30.5 in West 1.1 mph 2.3 mph 76% 0 in 28 W/m2
07:19 42.8 °F 35.8 °F 30.5 in West 1.1 mph 2.3 mph 76% 0 in 37 W/m2
07:24 43 °F 36 °F 30.5 in West 1.1 mph 2.3 mph 75.9% 0 in 49 W/m2
07:29 43.3 °F 36 °F 30.5 in West 0.6 mph 1.2 mph 75% 0 in 58 W/m2
07:34 43.5 °F 36 °F 30.5 in WSW 0.7 mph 2.3 mph 74.5% 0 in 62 W/m2
07:39 43.9 °F 36.1 °F 30.5 in WSW 1.4 mph 2.3 mph 74.2% 0 in 69 W/m2
07:44 44.1 °F 36.1 °F 30.5 in WSW 2.1 mph 3.5 mph 73.3% 0 in 58 W/m2
07:49 44.1 °F 36.3 °F 30.5 in WSW 2.2 mph 4 mph 74.1% 0 in 62 W/m2
07:54 44.2 °F 36.9 °F 30.5 in WSW 2.2 mph 4 mph 75% 0 in 74 W/m2
07:59 44.4 °F 36.7 °F 30.5 in WSW 2.5 mph 4 mph 74.2% 0 in 90 W/m2
08:04 44.4 °F 36.5 °F 30.5 in WSW 2.9 mph 4 mph 74% 0 in 97 W/m2
08:09 44.4 °F 36.7 °F 30.5 in WSW 3.4 mph 5 mph 74.1% 0 in 93 W/m2
08:14 44.6 °F 36.9 °F 30.5 in WSW 3 mph 5 mph 74.1% 0 in 98 W/m2
08:19 44.8 °F 37 °F 30.5 in SW 2.9 mph 4 mph 73.7% 0 in 93 W/m2
08:24 45.1 °F 36.5 °F 30.5 in WSW 3.2 mph 5 mph 71.8% 0 in 97 W/m2
08:29 45.3 °F 36.3 °F 30.5 in SW 2.7 mph 5 mph 71% 0 in 91 W/m2
08:34 45.5 °F 36.5 °F 30.5 in WSW 2.2 mph 4 mph 71% 0 in 109 W/m2
08:39 45.7 °F 36.9 °F 30.5 in WSW 2.1 mph 3.5 mph 71.3% 0 in 123 W/m2
08:44 46 °F 37.4 °F 30.5 in WSW 2.4 mph 4 mph 71.6% 0 in 134 W/m2
08:49 46.2 °F 37.2 °F 30.5 in WSW 2.5 mph 4 mph 70.9% 0 in 151 W/m2
08:54 46.2 °F 37.6 °F 30.5 in WSW 2.3 mph 4 mph 71.5% 0 in 153 W/m2
08:59 46.6 °F 37.6 °F 30.5 in WSW 2.6 mph 4 mph 71% 0 in 151 W/m2
09:04 46.6 °F 37.9 °F 30.5 in WSW 1.5 mph 4 mph 71.4% 0 in 149 W/m2
09:09 46.9 °F 38.1 °F 30.5 in WSW 1.9 mph 4 mph 71.6% 0 in 162 W/m2
09:14 47.1 °F 38.1 °F 30.5 in West 2.2 mph 4 mph 70.7% 0 in 163 W/m2
09:19 47.1 °F 37.8 °F 30.5 in West 0.6 mph 4 mph 69.6% 0 in 156 W/m2
09:24 47.3 °F 37.8 °F 30.5 in WSW 0.5 mph 2.3 mph 69.6% 0 in 188 W/m2
09:29 47.5 °F 38.1 °F 30.5 in WSW 0.9 mph 2.3 mph 70% 0 in 227 W/m2
09:34 48 °F 38.3 °F 30.5 in West 1.7 mph 3.5 mph 69.2% 0 in 272 W/m2
09:39 48.4 °F 38.3 °F 30.5 in WNW 1.3 mph 4 mph 68.4% 0 in 371 W/m2
09:44 48.7 °F 38.7 °F 30.5 in West 2.4 mph 5 mph 68.2% 0 in 278 W/m2
09:49 48.7 °F 38.3 °F 30.5 in West 2.3 mph 5 mph 67.3% 0 in 225 W/m2
09:54 48.7 °F 37.9 °F 30.5 in WNW 1.5 mph 5 mph 66.2% 0 in 213 W/m2
09:59 49.1 °F 38.1 °F 30.5 in WNW 1.2 mph 4 mph 65.8% 0 in 232 W/m2
10:04 49.3 °F 38.1 °F 30.5 in WNW 1.9 mph 4 mph 65.2% 0 in 260 W/m2
10:09 49.5 °F 38.1 °F 30.5 in WNW 2.4 mph 4.6 mph 65% 0 in 271 W/m2
10:14 49.3 °F 38.1 °F 30.5 in WSW 1.1 mph 5 mph 65.4% 0 in 272 W/m2
10:19 49.3 °F 38.1 °F 30.5 in WNW 2.7 mph 6 mph 65.3% 0 in 262 W/m2
10:24 49.6 °F 38.5 °F 30.5 in WNW 2.1 mph 6 mph 65.2% 0 in 262 W/m2
10:29 49.6 °F 38.3 °F 30.5 in West 4.4 mph 7 mph 65.3% 0 in 265 W/m2
10:34 49.5 °F 38.5 °F 30.5 in West 3.2 mph 7 mph 65.5% 0 in 265 W/m2
10:39 49.6 °F 38.7 °F 30.5 in West 4.2 mph 6 mph 65.5% 0 in 229 W/m2
10:44 49.6 °F 38.5 °F 30.5 in WSW 4.7 mph 6 mph 65.2% 0 in 225 W/m2
10:49 49.6 °F 38.5 °F 30.5 in West 3.5 mph 6 mph 65.5% 0 in 223 W/m2
10:54 49.6 °F 38.5 °F 30.5 in WSW 3.9 mph 9 mph 65.2% 0 in 218 W/m2
10:59 49.8 °F 38.3 °F 30.5 in WSW 4.5 mph 9.2 mph 64.5% 0 in 255 W/m2
11:04 49.8 °F 38.3 °F 30.5 in WSW 4.5 mph 9 mph 64.3% 0 in 309 W/m2
11:09 50 °F 38.5 °F 30.5 in West 4.5 mph 8.1 mph 64.5% 0 in 285 W/m2
11:14 50 °F 38.1 °F 30.5 in West 4.2 mph 8 mph 63.7% 0 in 265 W/m2
11:19 50 °F 38.1 °F 30.5 in West 3.5 mph 7 mph 63.5% 0 in 241 W/m2
11:24 50 °F 37.9 °F 30.5 in WSW 3 mph 6 mph 63.1% 0 in 278 W/m2
11:29 50.2 °F 38.3 °F 30.5 in West 3.6 mph 5 mph 63.6% 0 in 292 W/m2
11:34 50.4 °F 38.1 °F 30.5 in West 3.7 mph 8 mph 62.6% 0 in 288 W/m2
11:39 50.5 °F 38.8 °F 30.5 in West 5.2 mph 8.1 mph 63.7% 0 in 292 W/m2
11:44 50.7 °F 38.5 °F 30.5 in West 4.6 mph 8.1 mph 63% 0 in 294 W/m2
11:49 50.7 °F 38.5 °F 30.5 in WSW 6 mph 9.2 mph 62.8% 0 in 327 W/m2
11:54 51.1 °F 38.8 °F 30.5 in West 4.7 mph 9 mph 62.9% 0 in 343 W/m2
11:59 51.3 °F 38.8 °F 30.5 in WNW 4.8 mph 8.1 mph 62.7% 0 in 339 W/m2
12:04 51.3 °F 39.2 °F 30.5 in West 4.9 mph 9.2 mph 63.4% 0 in 401 W/m2
12:09 51.4 °F 39 °F 30.5 in West 5.2 mph 9.2 mph 62.6% 0 in 401 W/m2
12:14 51.4 °F 38.8 °F 30.5 in WSW 5.3 mph 9.2 mph 62% 0 in 352 W/m2
12:19 51.4 °F 38.8 °F 30.5 in West 5.1 mph 8.1 mph 62% 0 in 359 W/m2
12:24 51.4 °F 38.7 °F 30.5 in WSW 5.7 mph 9.2 mph 61.7% 0 in 330 W/m2
12:29 51.3 °F 38.5 °F 30.5 in West 4.7 mph 9 mph 61.4% 0 in 287 W/m2
12:34 51.4 °F 38.3 °F 30.5 in West 5.6 mph 9.2 mph 60.5% 0 in 287 W/m2
12:39 51.3 °F 37.9 °F 30.5 in West 4.4 mph 9 mph 60.3% 0 in 281 W/m2
12:44 51.4 °F 38.1 °F 30.5 in WNW 4.8 mph 9.2 mph 60.3% 0 in 292 W/m2
12:49 51.4 °F 38.1 °F 30.5 in WNW 6.1 mph 10.4 mph 60.2% 0 in 290 W/m2
12:54 51.4 °F 38.3 °F 30.5 in West 4.7 mph 9 mph 60.6% 0 in 269 W/m2
12:59 51.6 °F 37.9 °F 30.5 in WSW 5.8 mph 9.2 mph 59.3% 0 in 265 W/m2
13:04 51.4 °F 38.1 °F 30.5 in West 3.9 mph 9 mph 60.2% 0 in 283 W/m2
13:09 51.4 °F 38.3 °F 30.5 in West 4.8 mph 10.4 mph 60.6% 0 in 325 W/m2
13:14 51.6 °F 38.5 °F 30.5 in West 4.8 mph 9.2 mph 60.4% 0 in 390 W/m2
13:19 51.6 °F 38.3 °F 30.5 in WSW 4.2 mph 9 mph 60.2% 0 in 374 W/m2
13:24 52.3 °F 38.7 °F 30.5 in West 4 mph 8.1 mph 59.6% 0 in 290 W/m2
13:29 52 °F 37.9 °F 30.5 in WNW 3.6 mph 7 mph 58.3% 0 in 269 W/m2
13:34 52 °F 38.1 °F 30.5 in WNW 3.8 mph 7 mph 59.1% 0 in 315 W/m2
13:39 52.2 °F 38.5 °F 30.5 in West 4.9 mph 9 mph 59.4% 0 in 315 W/m2
13:44 52.3 °F 38.3 °F 30.5 in West 5.5 mph 9.2 mph 58.5% 0 in 309 W/m2
13:49 52.5 °F 38.5 °F 30.5 in WSW 4.8 mph 9 mph 58.6% 0 in 285 W/m2
13:54 52.5 °F 38.3 °F 30.5 in WSW 4 mph 10.4 mph 58.7% 0 in 272 W/m2
13:59 52.3 °F 38.3 °F 30.5 in WNW 4.1 mph 10 mph 58.6% 0 in 243 W/m2
14:04 52.5 °F 38.3 °F 30.5 in WNW 5.3 mph 10.4 mph 58.3% 0 in 246 W/m2
14:09 52.5 °F 38.3 °F 30.5 in West 5.2 mph 10 mph 58.5% 0 in 227 W/m2
14:14 52.2 °F 38.1 °F 30.5 in West 3.4 mph 9 mph 58.9% 0 in 206 W/m2
14:19 52.2 °F 38.3 °F 30.5 in West 3.8 mph 8 mph 59.1% 0 in 211 W/m2
14:24 52.3 °F 38.5 °F 30.5 in West 5.8 mph 10.4 mph 59.1% 0 in 237 W/m2
14:29 52.7 °F 38.7 °F 30.5 in West 4.7 mph 10 mph 58.9% 0 in 236 W/m2
14:34 52.5 °F 37.9 °F 30.5 in WNW 5 mph 9.2 mph 57.6% 0 in 230 W/m2
14:39 52.7 °F 38.5 °F 30.5 in West 5.4 mph 9 mph 58.5% 0 in 230 W/m2
14:44 52.5 °F 38.3 °F 30.5 in West 5.3 mph 9.2 mph 58.3% 0 in 207 W/m2
14:49 52.7 °F 38.3 °F 30.5 in NW 4.7 mph 9 mph 57.8% 0 in 206 W/m2
14:54 52.7 °F 38.1 °F 30.5 in West 5 mph 9.2 mph 57.8% 0 in 192 W/m2
14:59 52.5 °F 38.5 °F 30.5 in West 3.4 mph 9 mph 58.8% 0 in 207 W/m2
15:04 52.7 °F 38.1 °F 30.5 in WNW 3.9 mph 6 mph 57.8% 0 in 211 W/m2
15:09 52.7 °F 37.6 °F 30.5 in WNW 4 mph 6 mph 56.5% 0 in 204 W/m2
15:14 52.9 °F 37.8 °F 30.5 in WNW 4.5 mph 8.1 mph 56.3% 0 in 186 W/m2
15:19 52.7 °F 37.4 °F 30.5 in West 4.9 mph 8 mph 56% 0 in 186 W/m2
15:24 52.9 °F 38.3 °F 30.5 in West 4.3 mph 8.1 mph 57.7% 0 in 192 W/m2
15:29 52.5 °F 37.6 °F 30.5 in WNW 3.7 mph 8 mph 56.4% 0 in 185 W/m2
15:34 52.9 °F 36.7 °F 30.5 in WNW 4.7 mph 7 mph 54.1% 0 in 163 W/m2
15:39 52.7 °F 36.3 °F 30.5 in WNW 3.7 mph 8.1 mph 53.6% 0 in 199 W/m2
15:44 52.9 °F 36.7 °F 30.5 in WNW 3.9 mph 8 mph 54% 0 in 199 W/m2
15:49 53.1 °F 37 °F 30.5 in WNW 4.1 mph 7 mph 54.5% 0 in 199 W/m2
15:54 53.2 °F 36.9 °F 30.5 in NW 4.2 mph 7 mph 53.7% 0 in 188 W/m2
15:59 53.2 °F 36.5 °F 30.5 in West 3.2 mph 7 mph 53% 0 in 178 W/m2
16:04 53.1 °F 36.5 °F 30.5 in West 4.1 mph 7 mph 53.3% 0 in 171 W/m2
16:09 53.1 °F 36.5 °F 30.5 in WNW 3.4 mph 7 mph 53.4% 0 in 160 W/m2
16:14 53.1 °F 36.7 °F 30.5 in West 4 mph 7 mph 53.5% 0 in 146 W/m2
16:19 53.1 °F 36.7 °F 30.5 in West 3.9 mph 7 mph 53.6% 0 in 144 W/m2
16:24 53.1 °F 36.9 °F 30.5 in West 3 mph 7 mph 53.9% 0 in 141 W/m2
16:29 53.2 °F 36.9 °F 30.5 in WNW 2.7 mph 5 mph 53.7% 0 in 125 W/m2
16:34 53.2 °F 36.9 °F 30.5 in West 3 mph 6 mph 54.1% 0 in 116 W/m2
16:39 53.1 °F 37 °F 30.5 in West 3 mph 6 mph 54.3% 0 in 116 W/m2
16:44 53.1 °F 36.9 °F 30.5 in WNW 2.4 mph 6 mph 54.1% 0 in 113 W/m2
16:49 53.1 °F 37 °F 30.5 in West 1.8 mph 5 mph 54.4% 0 in 91 W/m2
16:54 53.1 °F 37 °F 30.5 in West 2.7 mph 5 mph 54.6% 0 in 72 W/m2
16:59 53.1 °F 37 °F 30.5 in West 3 mph 5 mph 54.4% 0 in 79 W/m2
17:04 53.1 °F 36.7 °F 30.5 in NW 2 mph 5 mph 53.6% 0 in 81 W/m2
17:09 53.1 °F 36.7 °F 30.5 in West 2.3 mph 4 mph 53.8% 0 in 81 W/m2
17:14 53.1 °F 37 °F 30.5 in West 3.2 mph 5 mph 54.4% 0 in 77 W/m2
17:19 52.9 °F 37.2 °F 30.5 in West 2.5 mph 5 mph 55% 0 in 54 W/m2
17:24 52.9 °F 37.2 °F 30.5 in West 2.4 mph 4 mph 55% 0 in 42 W/m2
17:29 52.7 °F 37 °F 30.5 in WSW 2.3 mph 4 mph 55% 0 in 44 W/m2
17:34 52.7 °F 37.2 °F 30.5 in WSW 1.6 mph 4 mph 55.3% 0 in 44 W/m2
17:39 52.7 °F 37 °F 30.5 in WSW 1.2 mph 3.5 mph 55% 0 in 39 W/m2
17:44 52.7 °F 37.2 °F 30.5 in WSW 1 mph 3 mph 55.4% 0 in 32 W/m2
17:49 52.7 °F 37.4 °F 30.5 in West 0.6 mph 2.3 mph 55.8% 0 in 32 W/m2
17:54 52.7 °F 37.4 °F 30.5 in West 0.2 mph 2 mph 56% 0 in 25 W/m2
17:59 52.7 °F 37 °F 30.5 in West 0.9 mph 2.3 mph 55.5% 0 in 16 W/m2
18:04 52.5 °F 37.4 °F 30.5 in West 0.2 mph 2.3 mph 56.3% 0 in 11 W/m2
18:09 52.3 °F 37.4 °F 30.5 in Calm   2 mph 56.5% 0 in 9 W/m2
18:14 52.3 °F 37.2 °F 30.5 in West 0.1 mph 1.2 mph 56.6% 0 in 5 W/m2
18:19 52 °F 37.2 °F 30.5 in West 0.1 mph 1.2 mph 56.8% 0 in 0 W/m2
18:24 51.6 °F 37.4 °F 30.5 in Calm   1 mph 58.2% 0 in 0 W/m2
18:29 51.3 °F 37.4 °F 30.5 in Calm     59% 0 in 0 W/m2
18:34 51.1 °F 37.8 °F 30.5 in Calm     60.1% 0 in 0 W/m2
18:39 50.7 °F 37.8 °F 30.5 in Calm     61% 0 in 0 W/m2
18:44 50.5 °F 37.8 °F 30.5 in Calm     61.5% 0 in 0 W/m2
18:49 50 °F 37.4 °F 30.5 in Calm     61.8% 0 in 0 W/m2
18:54 49.6 °F 37.4 °F 30.5 in Calm     62.5% 0 in 0 W/m2
18:59 49.3 °F 37.4 °F 30.5 in West 0.6 mph 2 mph 63.2% 0 in 0 W/m2
19:04 48.9 °F 37.2 °F 30.5 in SW 1.5 mph 2.3 mph 64% 0 in 0 W/m2
19:09 48.6 °F 36.9 °F 30.5 in SE 1.7 mph 2.3 mph 64% 0 in 0 W/m2
19:14 48.4 °F 37 °F 30.5 in SE 1.4 mph 2.3 mph 64.8% 0 in 0 W/m2
19:19 48 °F 37.2 °F 30.5 in SE 1.2 mph 2.3 mph 66.1% 0 in 0 W/m2
19:24 47.8 °F 37 °F 30.5 in SE 0.4 mph 2 mph 66% 0 in 0 W/m2
19:29 47.8 °F 37 °F 30.6 in Calm   1.2 mph 66% 0 in 0 W/m2
19:34 47.8 °F 37 °F 30.6 in Calm   1 mph 66% 0 in 0 W/m2
19:39 47.7 °F 37.2 °F 30.6 in Calm     66.8% 0 in 0 W/m2
19:44 47.5 °F 37 °F 30.6 in Calm     67% 0 in 0 W/m2
19:49 47.3 °F 37.2 °F 30.6 in Calm     67.6% 0 in 0 W/m2
19:54 47.1 °F 37.4 °F 30.6 in Calm     68.5% 0 in 0 W/m2
19:59 46.9 °F 37.2 °F 30.6 in Calm     68.7% 0 in 0 W/m2
20:04 46.9 °F 37.2 °F 30.6 in Calm     68.5% 0 in 0 W/m2
20:09 46.8 °F 37 °F 30.6 in Calm     68.3% 0 in 0 W/m2
20:14 46.8 °F 36.7 °F 30.6 in Calm     68% 0 in 0 W/m2
20:19 46.8 °F 36.9 °F 30.6 in Calm     68.2% 0 in 0 W/m2
20:24 46.8 °F 37 °F 30.6 in Calm     68.8% 0 in 0 W/m2
20:29 46.6 °F 37 °F 30.6 in Calm     69% 0 in 0 W/m2
20:34 46.6 °F 37 °F 30.6 in Calm     69% 0 in 0 W/m2
20:39 46.8 °F 37 °F 30.6 in SE 0.7 mph 2.3 mph 69% 0 in 0 W/m2
20:44 46.8 °F 37 °F 30.6 in SE 1.2 mph 2.3 mph 68.6% 0 in 0 W/m2
20:49 46.6 °F 36.9 °F 30.6 in ESE 2.1 mph 4 mph 68.6% 0 in 0 W/m2
20:54 46.4 °F 36.1 °F 30.6 in ESE 2.7 mph 4 mph 67.3% 0 in 0 W/m2
20:59 45.7 °F 36.1 °F 30.6 in East 2.5 mph 5 mph 69% 0 in 0 W/m2
21:04 44.8 °F 36.5 °F 30.6 in East 1.7 mph 5 mph 72.8% 0 in 0 W/m2
21:09 44.6 °F 36.9 °F 30.6 in East 1.9 mph 3.5 mph 74.4% 0 in 0 W/m2
21:14 44.8 °F 37.2 °F 30.6 in East 1.7 mph 3.5 mph 74.2% 0 in 0 W/m2
21:19 45 °F 37.2 °F 30.6 in East 1.7 mph 3.5 mph 73.8% 0 in 0 W/m2
21:24 45 °F 37 °F 30.6 in ENE 1.7 mph 3 mph 74% 0 in 0 W/m2
21:29 45.1 °F 36.9 °F 30.6 in ENE 2.4 mph 4 mph 72.7% 0 in 0 W/m2
21:34 45.5 °F 36.7 °F 30.6 in ENE 2.9 mph 4 mph 71.3% 0 in 0 W/m2
21:39 45.7 °F 36.9 °F 30.6 in ENE 2.9 mph 4 mph 71% 0 in 0 W/m2
21:44 45.7 °F 36.7 °F 30.6 in ENE 2.9 mph 4 mph 71% 0 in 0 W/m2
21:49 45.5 °F 36.7 °F 30.6 in ENE 2.8 mph 4 mph 71.4% 0 in 0 W/m2
21:54 45.3 °F 36.9 °F 30.6 in ENE 2.7 mph 4 mph 72% 0 in 0 W/m2
21:59 45.1 °F 36.7 °F 30.6 in ENE 2.4 mph 4 mph 72% 0 in 0 W/m2
22:04 45.1 °F 36.7 °F 30.6 in ENE 1.8 mph 4 mph 72% 0 in 0 W/m2
22:09 45.1 °F 36.7 °F 30.6 in ENE 3.4 mph 5 mph 72% 0 in 0 W/m2
22:14 45.1 °F 36.7 °F 30.6 in ENE 4.9 mph 8.1 mph 72% 0 in 0 W/m2
22:19 45.1 °F 36.9 °F 30.6 in NE 4.4 mph 8 mph 72.4% 0 in 0 W/m2
22:24 45.1 °F 36.9 °F 30.6 in ENE 5.1 mph 8.1 mph 72.6% 0 in 0 W/m2
22:29 45.1 °F 36.7 °F 30.6 in ENE 4.7 mph 8.1 mph 72% 0 in 0 W/m2
22:34 45.1 °F 36.7 °F 30.6 in ENE 3.6 mph 8 mph 72% 0 in 0 W/m2
22:39 45.1 °F 36.7 °F 30.6 in ENE 3.6 mph 5 mph 72% 0 in 0 W/m2
22:44 45 °F 36.5 °F 30.6 in ENE 2.9 mph 5 mph 72% 0 in 0 W/m2
22:49 45 °F 36.5 °F 30.6 in ENE 3.2 mph 5 mph 72.1% 0 in 0 W/m2
22:54 44.8 °F 36.7 °F 30.6 in ENE 3.2 mph 5 mph 73% 0 in 0 W/m2
22:59 44.4 °F 36.3 °F 30.6 in ENE 2.9 mph 5 mph 73% 0 in 0 W/m2
23:04 44.4 °F 36.3 °F 30.6 in ENE 2.2 mph 4 mph 73% 0 in 0 W/m2
23:09 44.4 °F 36.3 °F 30.6 in ENE 2.4 mph 3.5 mph 73% 0 in 0 W/m2
23:14 44.4 °F 36.3 °F 30.6 in ENE 1.7 mph 3.5 mph 73% 0 in 0 W/m2
23:19 44.4 °F 36.3 °F 30.6 in NE 1.7 mph 3.5 mph 73% 0 in 0 W/m2
23:24 44.4 °F 36.5 °F 30.6 in NE 1.3 mph 3 mph 73.8% 0 in 0 W/m2
23:29 44.4 °F 36.5 °F 30.6 in NE 2.1 mph 3.5 mph 74% 0 in 0 W/m2
23:34 44.1 °F 36.3 °F 30.6 in ENE 1.7 mph 3.5 mph 74% 0 in 0 W/m2
23:39 44.1 °F 36.5 °F 30.6 in NE 2.2 mph 4 mph 74.8% 0 in 0 W/m2
23:44 43.9 °F 36.7 °F 30.6 in NE 2.4 mph 4 mph 75.6% 0 in 0 W/m2
23:49 43.7 °F 36.5 °F 30.6 in NNE 1.9 mph 4 mph 76% 0 in 0 W/m2
23:54 43.5 °F 36.7 °F 30.6 in NNE 1.1 mph 3 mph 76.8% 0 in 0 W/m2
23:59 43.3 °F 36.7 °F 30.6 in NNE 0.7 mph 2.3 mph 77% 0 in 0 W/m2
Stazione Meteorologica MeteoMincio Rivalta s/M (MN)
Con i complimenti di Weather Underground - 4 mb


METEO PILLOLE
Maggior quantità di pioggia caduta in 48 ore
Cherrapunji (1313 m) - India
Tra il 15 e 16 giugno 1995 caddero 2493mm di pioggia.

Do NOT follow this link or you will be banned from the site!